Tiempo atmosférico en la estación meteorológica de Mosqueruela, Teruel (1505 m.)



Fecha
DESCASC
Temp. máxima en grados centígrados (hora)
DESCASC
Temp. mínima en grados centígrados (hora)
DESCASC
Temp. media en grados centígrados
DESCASC
Racha de viento máxima en m/sg (hora)
DESCASC
Velocidad máxima media en intervalos de 10 minutos(hora)
DESCASC
Precipitaciones diarias en mm
DESCASC
Precipitaciones de 00:00 a 06:00 en mm
DESCASC
Precipitaciones de 06:00 a 12:00 en mm
DESCASC
Precipitaciones de 12:00 a 18:00 en mm
DESCASC
Precipitaciones de 18:00 a 24:00 en mm
DESCASC
16-04-2019 13.6 (12:30) 4.1 (07:20) 8.9 11.11 (08:30) 8.61 (07:30) 0 0 0 0 0
15-04-2019 14.5 (15:10) 7.3 (22:40) 10.9 10 (14:50) 6.67 (12:00) 0 0 0 0 0
14-04-2019 17.5 (17:50) 3.5 (00:00) 10.5 15 (11:20) 10.56 (08:00) 0 0 0 0 0
13-04-2019 15.3 (17:30) -0.1 (00:00) 7.6 10 (00:40) 7.78 (00:40) 0 0 0 0 0
12-04-2019 10.7 (13:30) -1 (-00:0) 4.8 16.39 (01:10) 13.06 (01:00) 0 0 0 0 0
11-04-2019 8 (16:30) -0.3 (00:00) 3.8 18.33 (11:40) 13.33 (05:40) 0 0 0 0 0
10-04-2019 6.8 (15:30) 0.7 (00:00) 3.8 19.44 (02:50) 12.78 (02:50) 0.8 0 0 0 0.8
09-04-2019 8.7 (16:40) 0.8 (00:00) 4.7 17.5 (23:30) 12.5 (23:40) 1.4 0 0 0 1.4
08-04-2019 11.7 (16:20) 1.4 (00:00) 6.5 11.94 (16:50) 7.22 (11:50) 1.6 0 0 1.4 0.2
07-04-2019 6.3 (18:00) -1.3 (-00:0) 2.5 20.28 (14:30) 13.33 (11:50) 0 0 0 0 0
06-04-2019 5.3 (15:10) -2 (-00:0) 1.7 16.39 (03:40) 10.28 (03:30) 0.2 0 0 0.2 0
05-04-2019 7.5 (14:10) -0.9 (-00:0) 3.3 15.28 (23:20) 9.72 (23:50) 1.6 0 0 1.2 0.4
04-04-2019 8.5 (16:10) -3.7 (-00:0) 2.4 12.5 (01:20) 7.78 (09:50) 0 0 0 0 0
03-04-2019 9.9 (15:10) -2 (23:59) 3.9 14.17 (20:10) 9.17 (20:10) 0.4 0 0 0.2 0.2
02-04-2019 9.7 (15:00) 2.6 (00:00) 6.1 8.89 (07:50) 7.22 (04:40) 0.8 0 0 0.2 0.6
01-04-2019 7.3 (17:30) 2.1 (00:00) 4.7 5.83 (21:10) 3.89 (21:10) 7.8 4.8 2 1 0
31-03-2019 4.4 (00:00) 1.8 (00:00) 3.1 6.11 (17:10) 4.17 (21:00) 16 0 0.6 9.2 6.2
30-03-2019 10.7 (14:30) -1.3 (-00:0) 4.7 8.89 (14:40) 5.83 (14:40) 0 0 0 0 0
29-03-2019 10 (13:50) -0.8 (-00:0) 4.6 9.17 (14:20) 6.11 (13:40) 0 0 0 0 0
28-03-2019 12.1 (15:00) -1.5 (-00:0) 5.3 8.06 (15:40) 5 (17:10) 0 0 0 0 0
27-03-2019 12.7 (15:10) -2.9 (-00:0) 4.9 7.78 (15:20) 5.56 (00:40) 0 0 0 0 0
26-03-2019 12.9 (15:30) 0 (00:00) 6.4 8.89 (15:20) 5.28 (05:50) 0 0 0 0 0
25-03-2019 14.8 (14:40) 2.1 (00:00) 8.5 9.72 (12:20) 5.83 (21:10) 0 0 0 0 0
24-03-2019 14.7 (14:00) 1.8 (00:00) 8.2 9.44 (12:00) 4.72 (10:00) 0 0 0 0 0
23-03-2019 12.5 (14:10) 2.1 (00:00) 7.3 10 (13:10) 5.83 (14:20) 0 0 0 0 0
22-03-2019 10.4 (14:30) -1 (-00:0) 4.7 8.33 (09:50) 5.56 (09:50) 0 0 0 0 0
21-03-2019 8.3 (16:10) -2.5 (-00:0) 2.9 8.61 (14:50) 6.11 (02:00) 0 0 0 0 0
20-03-2019 7.9 (15:30) -4.1 (-00:0) 1.9 10.83 (08:20) 8.61 (08:30) 0 0 0 0 0
19-03-2019 5.5 (13:50) -2 (-00:0) 1.8 20.56 (01:00) 16.39 (01:00) 0.2 0 0.2 0 0

Gráficas

Temp. máximas Temp. mínimas Temp. medias Precipitaciones Rachas de viento máximas Velocidades máximas media en intervalos de 10 minutos

Datos horarios

Fecha y hora oficial Temperatura (ºC) Velocidad del viento (km/h) Dirección del viento Racha (km/h) Dirección de racha Precipitación (mm) Presión (hPa) Tendencia (hPa) Humedad (%)
2019-04-17 23:00:00 5.9 3 Sudoeste 8 Sudeste 0 -- -- 95
2019-04-17 22:00:00 8.6 6 Sur 10 Sudoeste 0 -- -- 82
2019-04-17 21:00:00 8.9 6 Sur 12 Sur 0 -- -- 72
2019-04-17 20:00:00 10.5 9 Sur 13 Sur 0 -- -- 72
2019-04-17 19:00:00 11.6 12 Sur 20 Sudeste 0 -- -- 71
2019-04-17 18:00:00 12.4 12 Sur 23 Sur 0 -- -- 67
2019-04-17 17:00:00 13.4 18 Sur 29 Sudeste 0 -- -- 59
2019-04-17 16:00:00 13.8 19 Sur 30 Sur 0 -- -- 58
2019-04-17 15:00:00 14.4 19 Sur 30 Sur 0 -- -- 49
2019-04-17 14:00:00 13 19 Sur 31 Sur 0 -- -- 52
2019-04-17 13:00:00 13.9 18 Sudeste 30 Sudeste 0 -- -- 42
2019-04-17 12:00:00 13.3 18 Sur 27 Sur 0 -- -- 45
2019-04-17 11:00:00 12.1 17 Sur 26 Sur 0 -- -- 50
2019-04-17 10:00:00 10.8 15 Sudeste 26 Sudeste 0 -- -- 53
2019-04-17 09:00:00 9.6 20 Sur 28 Sur 0 -- -- 50
2019-04-17 08:00:00 7.5 9 Sur 19 Sudoeste 0 -- -- 62
2019-04-17 07:00:00 5.5 15 Sudoeste 21 Sur 0 -- -- 73
2019-04-17 06:00:00 4.2 5 Sur 15 Sur 0 -- -- 82
2019-04-17 05:00:00 4.1 6 Sudoeste 12 Sur 0 -- -- 86
2019-04-17 04:00:00 3.6 4 Sudoeste 10 Sudoeste 0 -- -- 92
2019-04-17 03:00:00 3.6 7 Sudoeste 10 Sur 0 -- -- 93
2019-04-17 02:00:00 4.8 5 Sudeste 15 Sur 0 -- -- 95
2019-04-17 01:00:00 5.1 11 Sur 19 Sudeste 0 -- -- 94
2019-04-17 00:00:00 5.2 10 Sur 16 Sudeste 0 -- -- 99
2019-04-16 23:00:00 5.6 8 Sur 18 Sudeste 0 -- -- 99
2019-04-16 22:00:00 6.2 6 Sudeste 14 Sur 0 -- -- 96
2019-04-16 21:00:00 6.9 8 Sur 15 Sur 0 -- -- 92
2019-04-16 20:00:00 7 7 Sudeste 19 Este 0 -- -- 94
2019-04-16 19:00:00 8.2 11 Este 20 Sudeste 0 -- -- 89
2019-04-16 18:00:00 8.1 10 Sudeste 19 Sur 0 -- -- 88
2019-04-16 17:00:00 8.6 11 Este 21 Este 0 -- -- 89
2019-04-16 16:00:00 10.9 13 Este 28 Este 0 -- -- 75
2019-04-16 15:00:00 12.6 16 Nordeste 26 Este 0 -- -- 64
2019-04-16 14:00:00 11.4 13 Este 28 Este 0 -- -- 62
2019-04-16 13:00:00 11.8 11 Sudeste 24 Este 0 -- -- 57
2019-04-16 12:00:00 12 12 Este 31 Nordeste 0 -- -- 58
2019-04-16 11:00:00 10.5 16 Norte 30 Norte 0 -- -- 63
2019-04-16 10:00:00 7.8 21 Oeste 34 Oeste 0 -- -- 72
2019-04-16 09:00:00 6.5 27 Oeste 40 Oeste 0 -- -- 76
2019-04-16 08:00:00 5 24 Oeste 39 Oeste 0 -- -- 86
2019-04-16 07:00:00 4.2 25 Oeste 35 Oeste 0 -- -- 89
2019-04-16 06:00:00 5.3 26 Oeste 37 Oeste 0 -- -- 86
2019-04-16 05:00:00 6.3 19 Oeste 31 Oeste 0 -- -- 80
2019-04-16 04:00:00 6.7 19 Oeste 35 Oeste 0 -- -- 85
2019-04-16 03:00:00 7.6 23 Oeste 38 Oeste 0 -- -- 81
2019-04-16 02:00:00 8.4 19 Oeste 31 Oeste 0 -- -- 83
2019-04-16 01:00:00 8.6 11 Oeste 23 Sudoeste 0 -- -- 67
2019-04-16 00:00:00 9 10 Oeste 23 Oeste 0 -- -- 77
2019-04-15 23:00:00 7.5 7 Sudoeste 14 Sur 0 -- -- 85
2019-04-15 22:00:00 8.2 9 Sur 17 Sur 0 -- -- 81
2019-04-15 21:00:00 9.2 10 Sur 18 Sur 0 -- -- 76
2019-04-15 20:00:00 11.3 10 Sur 24 Sur 0 -- -- 68
2019-04-15 19:00:00 12.1 18 Sur 27 Sur 0 -- -- 64
2019-04-15 18:00:00 13.5 16 Sur 26 Sur 0 -- -- 59
2019-04-15 17:00:00 11.4 16 Sur 28 Sudeste 0 -- -- 66
2019-04-15 16:00:00 12.9 15 Sur 35 Sur 0 -- -- 63
2019-04-15 15:00:00 14 23 Sur 36 Sur 0 -- -- 62
2019-04-15 14:00:00 13.3 23 Sur 34 Sur 0 -- -- 63
2019-04-15 13:00:00 13.9 21 Sudeste 33 Sudeste 0 -- -- 62
2019-04-15 12:00:00 13.6 24 Sudeste 35 Sudeste 0 -- -- 60
2019-04-15 11:00:00 13.7 15 Sudeste 26 Sudeste 0 -- -- 63
2019-04-15 10:00:00 12.5 18 Sur 24 Sur 0 -- -- 66
2019-04-15 09:00:00 11.4 10 Sudeste 17 Sudeste 0 -- -- 70
2019-04-15 08:00:00 9.9 4 Sur 15 Sudoeste 0 -- -- 72
2019-04-15 07:00:00 9.3 12 Sudoeste 18 Sudoeste 0 -- -- 75
2019-04-15 06:00:00 8.9 13 Sudoeste 15 Sudoeste 0 -- -- 77
2019-04-15 05:00:00 9.1 9 Sudoeste 13 Sudoeste 0 -- -- 77
2019-04-15 04:00:00 8.5 3 Este 21 Oeste 0 -- -- 77
2019-04-15 03:00:00 8.6 15 Oeste 21 Oeste 0 -- -- 78
2019-04-15 02:00:00 8.4 13 Sudoeste 20 Oeste 0 -- -- 80
2019-04-15 01:00:00 8.3 13 Oeste 18 Oeste 0 -- -- 78
2019-04-15 00:00:00 8.4 7 Oeste 14 Oeste 0 -- -- 79
2019-04-14 23:00:00 8.7 4 Sur 11 Oeste 0 -- -- 79
2019-04-14 22:00:00 11.3 7 Oeste 19 Noroeste 0 -- -- 70
2019-04-14 21:00:00 12.5 10 Noroeste 17 Noroeste 0 -- -- 66
2019-04-14 20:00:00 14.4 10 Noroeste 24 Noroeste 0 -- -- 60
2019-04-14 19:00:00 16.2 14 Noroeste 31 Noroeste 0 -- -- 51
2019-04-14 18:00:00 16.9 18 Oeste 34 Oeste 0 -- -- 49
2019-04-14 17:00:00 16.8 22 Oeste 37 Noroeste 0 -- -- 48
2019-04-14 16:00:00 16.4 23 Oeste 39 Oeste 0 -- -- 49
2019-04-14 15:00:00 15.8 27 Oeste 42 Noroeste 0 -- -- 50
2019-04-14 14:00:00 15 27 Oeste 47 Oeste 0 -- -- 51
2019-04-14 13:00:00 14.4 23 Oeste 41 Oeste 0 -- -- 55
2019-04-14 12:00:00 11.3 28 Oeste 54 Oeste 0 -- -- 65
2019-04-14 11:00:00 11.4 36 Oeste 53 Oeste 0 -- -- 63
2019-04-14 10:00:00 9.3 22 Noroeste 41 Noroeste 0 -- -- 63
2019-04-14 09:00:00 8.6 24 Noroeste 52 Oeste 0 -- -- 49
2019-04-14 08:00:00 8.9 38 Oeste 52 Oeste 0 -- -- 46
2019-04-14 07:00:00 8.9 33 Oeste 53 Oeste 0 -- -- 47
2019-04-14 06:00:00 8.6 28 Oeste 43 Oeste 0 -- -- 45
2019-04-14 05:00:00 8 25 Oeste 40 Oeste 0 -- -- 42
2019-04-14 04:00:00 8 28 Oeste 41 Oeste 0 -- -- 39
2019-04-14 03:00:00 7.8 23 Oeste 39 Noroeste 0 -- -- 34
2019-04-14 02:00:00 6.5 17 Oeste 31 Oeste 0 -- -- 29
2019-04-14 01:00:00 5 16 Oeste 25 Oeste 0 -- -- 31
2019-04-14 00:00:00 3.5 11 Oeste 15 Sudoeste 0 -- -- 37
2019-04-13 23:00:00 4.6 10 Oeste 15 Oeste 0 -- -- 42
2019-04-13 22:00:00 5.2 9 Oeste 13 Oeste 0 -- -- 42
2019-04-13 21:00:00 6.3 7 Sudoeste 10 Sudoeste 0 -- -- 40
2019-04-13 20:00:00 11.8 6 Noroeste 21 Noroeste 0 -- -- 23
2019-04-13 19:00:00 14.2 11 Noroeste 35 Noroeste 0 -- -- 21
2019-04-13 18:00:00 14.3 3 Este 31 Nordeste 0 -- -- 32
2019-04-13 17:00:00 14.6 15 Este 23 Este 0 -- -- 32
2019-04-13 16:00:00 15.1 9 Este 23 Este 0 -- -- 28
2019-04-13 15:00:00 13.9 15 Este 27 Este 0 -- -- 26
2019-04-13 14:00:00 13.7 14 Este 24 Este 0 -- -- 25
2019-04-13 13:00:00 13 5 Sudeste 22 Nordeste 0 -- -- 22
2019-04-13 12:00:00 11.9 6 Nordeste 22 Noroeste 0 -- -- 27
2019-04-13 11:00:00 10.6 12 Norte 21 Norte 0 -- -- 29
2019-04-13 10:00:00 8.1 10 Noroeste 16 Noroeste 0 -- -- 30
2019-04-13 09:00:00 5.4 3 Norte 10 Oeste 0 -- -- 48
2019-04-13 08:00:00 1.4 3 Oeste 13 Oeste 0 -- -- 46
2019-04-13 07:00:00 0.6 3 Oeste 17 Oeste 0 -- -- 47
2019-04-13 06:00:00 0.8 10 Oeste 21 Oeste 0 -- -- 50
2019-04-13 05:00:00 1.7 19 Oeste 26 Oeste 0 -- -- 53
2019-04-13 04:00:00 2.7 21 Oeste 31 Oeste 0 -- -- 48
2019-04-13 03:00:00 3 24 Oeste 32 Oeste 0 -- -- 60
2019-04-13 02:00:00 3.3 19 Oeste 32 Oeste 0 -- -- 66
2019-04-13 01:00:00 4.4 24 Noroeste 36 Oeste 0 -- -- 58
2019-04-13 00:00:00 3.6 12 Oeste 22 Oeste 0 -- -- 63
2019-04-12 23:00:00 3.3 17 Oeste 32 Oeste 0 -- -- 69
2019-04-12 22:00:00 5 22 Oeste 29 Oeste 0 -- -- 65
2019-04-12 21:00:00 5.7 17 Oeste 25 Oeste 0 -- -- 65
2019-04-12 20:00:00 7.8 15 Oeste 23 Oeste 0 -- -- 53
2019-04-12 19:00:00 9.8 15 Noroeste 23 Noroeste 0 -- -- 48
2019-04-12 18:00:00 9.4 13 Noroeste 19 Noroeste 0 -- -- 50
2019-04-12 17:00:00 10.7 12 Noroeste 19 Oeste 0 -- -- 49
2019-04-12 16:00:00 9.3 6 Este 20 Sur 0 -- -- 58
2019-04-12 15:00:00 10.1 8 Norte 20 Norte 0 -- -- 54
2019-04-12 14:00:00 9.1 11 Oeste 22 Oeste 0 -- -- 57
2019-04-12 13:00:00 10.4 7 Nordeste 24 Nordeste 0 -- -- 49
2019-04-12 12:00:00 8.8 14 Norte 23 Norte 0 -- -- 56
2019-04-12 11:00:00 6.5 12 Noroeste 26 Noroeste 0 -- -- 64
2019-04-12 10:00:00 3.7 17 Oeste 32 Noroeste 0 -- -- 73
2019-04-12 09:00:00 1.4 27 Oeste 35 Noroeste 0 -- -- 82
2019-04-12 08:00:00 -0.1 23 Oeste 33 Oeste 0 -- -- 87
2019-04-12 07:00:00 -0.9 21 Oeste 34 Oeste 0 -- -- 90
2019-04-12 06:00:00 -0.9 23 Oeste 39 Oeste 0 -- -- 90
2019-04-12 05:00:00 -0.5 31 Oeste 43 Noroeste 0 -- -- 87
2019-04-12 04:00:00 -0.2 38 Oeste 46 Oeste 0 -- -- 85
2019-04-12 03:00:00 0.3 31 Oeste 45 Noroeste 0 -- -- 81
2019-04-12 02:00:00 0.5 38 Oeste 59 Noroeste 0 -- -- 82
2019-04-12 01:00:00 0.7 47 Oeste 57 Oeste 0 -- -- 84
2019-04-12 00:00:00 1.2 27 Noroeste 43 Noroeste 0 -- -- 83
2019-04-11 23:00:00 1.8 13 Norte 44 Oeste 0 -- -- 85
2019-04-11 22:00:00 2.1 31 Oeste 59 Noroeste 0 -- -- 79
2019-04-11 21:00:00 2.9 24 Oeste 48 Oeste 0 -- -- 79
2019-04-11 20:00:00 4.2 17 Noroeste 47 Noroeste 0 -- -- 71
2019-04-11 19:00:00 5.9 22 Noroeste 45 Noroeste 0 -- -- 63
2019-04-11 18:00:00 6.8 21 Noroeste 51 Oeste 0 -- -- 58
2019-04-11 17:00:00 7.3 25 Oeste 54 Oeste 0 -- -- 56
2019-04-11 16:00:00 7.3 23 Noroeste 47 Norte 0 -- -- 56
2019-04-11 15:00:00 7.3 28 Noroeste 63 Noroeste 0 -- -- 56
2019-04-11 14:00:00 6.8 27 Noroeste 54 Oeste 0 -- -- 57
2019-04-11 13:00:00 5.9 37 Oeste 59 Oeste 0 -- -- 62
2019-04-11 12:00:00 4.3 37 Noroeste 66 Oeste 0 -- -- 70
2019-04-11 11:00:00 3.3 32 Oeste 59 Noroeste 0 -- -- 75
2019-04-11 10:00:00 1.6 37 Noroeste 60 Noroeste 0 -- -- 80
2019-04-11 09:00:00 0.8 33 Noroeste 51 Oeste 0 -- -- 81
2019-04-11 08:00:00 0.1 33 Noroeste 53 Noroeste 0 -- -- 86
2019-04-11 07:00:00 -0.1 33 Noroeste 60 Oeste 0 -- -- 88
2019-04-11 06:00:00 0.2 46 Oeste 62 Oeste 0 -- -- 89
2019-04-11 05:00:00 0.3 42 Oeste 54 Noroeste 0 -- -- 89
2019-04-11 04:00:00 0.2 37 Oeste 54 Oeste 0 -- -- 89
2019-04-11 03:00:00 0.5 42 Oeste 52 Oeste 0 -- -- 88
2019-04-11 02:00:00 1 38 Oeste 47 Noroeste 0 -- -- 87
2019-04-11 01:00:00 1.2 27 Oeste 44 Oeste 0 -- -- 87
2019-04-11 00:00:00 1.7 26 Noroeste 38 Noroeste 0 -- -- 86
2019-04-10 23:00:00 1.8 15 Noroeste 42 Oeste 0 -- -- 91
2019-04-10 22:00:00 1.8 30 Oeste 42 Oeste 0 -- -- 86
2019-04-10 21:00:00 2.1 26 Oeste 40 Noroeste 0.2 -- -- 90
2019-04-10 20:00:00 1.2 25 Oeste 39 Oeste 0.6 -- -- 93
2019-04-10 19:00:00 4.7 26 Oeste 36 Noroeste 0 -- -- 70
2019-04-10 18:00:00 5 19 Oeste 36 Oeste 0 -- -- 71
2019-04-10 17:00:00 5.8 22 Noroeste 37 Noroeste 0 -- -- 71
2019-04-10 16:00:00 5.7 21 Noroeste 40 Noroeste 0 -- -- 57
2019-04-10 15:00:00 6.4 27 Oeste 39 Oeste 0 -- -- 59
2019-04-10 14:00:00 6.6 22 Oeste 42 Oeste 0 -- -- 63
2019-04-10 13:00:00 5.5 23 Oeste 49 Oeste 0 -- -- 61
2019-04-10 12:00:00 4.4 34 Oeste 62 Oeste 0 -- -- 71
2019-04-10 11:00:00 3.6 36 Oeste 59 Noroeste 0 -- -- 74
2019-04-10 10:00:00 2 30 Noroeste 59 Noroeste 0 -- -- 81
2019-04-10 09:00:00 1.7 42 Noroeste 60 Oeste 0 -- -- 83
2019-04-10 08:00:00 0.9 24 Noroeste 54 Noroeste 0 -- -- 86
2019-04-10 07:00:00 0.8 33 Oeste 62 Oeste 0 -- -- 85
2019-04-10 06:00:00 1 31 Oeste 59 Oeste 0 -- -- 86
2019-04-10 05:00:00 1.2 26 Noroeste 54 Oeste 0 -- -- 83
2019-04-10 04:00:00 1.2 37 Oeste 59 Oeste 0 -- -- 85
2019-04-10 03:00:00 1.3 45 Oeste 70 Noroeste 0 -- -- 86
2019-04-10 02:00:00 1.4 32 Oeste 56 Noroeste 0 -- -- 88
2019-04-10 01:00:00 1.6 33 Oeste 56 Oeste 0 -- -- 86
2019-04-10 00:00:00 1.3 36 Noroeste 63 Oeste 0 -- -- 86
2019-04-09 23:00:00 1.2 39 Oeste 59 Oeste 0 -- -- 88
2019-04-09 22:00:00 1.1 26 Oeste 50 Oeste 0.2 -- -- 89
2019-04-09 21:00:00 1 17 Oeste 31 Oeste 1 -- -- 92
2019-04-09 20:00:00 2.8 8 Oeste 26 Oeste 0.2 -- -- 85
2019-04-09 19:00:00 3.1 12 Oeste 31 Sudoeste 0 -- -- 84
2019-04-09 18:00:00 5.1 19 Oeste 41 Sudoeste 0 -- -- 75
2019-04-09 17:00:00 7.8 19 Sudoeste 35 Noroeste 0 -- -- 53
2019-04-09 16:00:00 7.4 15 Noroeste 39 Oeste 0 -- -- 58
2019-04-09 15:00:00 6.6 22 Oeste 39 Oeste 0 -- -- 56
2019-04-09 14:00:00 8.2 19 Oeste 42 Oeste 0 -- -- 52
2019-04-09 13:00:00 7.1 22 Oeste 39 Oeste 0 -- -- 56
2019-04-09 12:00:00 5.8 17 Oeste 49 Oeste 0 -- -- 60
2019-04-09 11:00:00 5 35 Oeste 57 Oeste 0 -- -- 62
2019-04-09 10:00:00 3.6 29 Oeste 54 Noroeste 0 -- -- 74
2019-04-09 09:00:00 2.1 30 Oeste 49 Oeste 0 -- -- 81
2019-04-09 08:00:00 1.1 24 Oeste 50 Oeste 0 -- -- 85
2019-04-09 07:00:00 1 30 Oeste 50 Oeste 0 -- -- 85
2019-04-09 06:00:00 1 25 Oeste 41 Oeste 0 -- -- 85
2019-04-09 05:00:00 1.2 19 Oeste 31 Oeste 0 -- -- 87
2019-04-09 04:00:00 1.5 11 Oeste 21 Oeste 0 -- -- 88
2019-04-09 03:00:00 2.1 10 Oeste 18 Oeste 0 -- -- 86
2019-04-09 02:00:00 2.3 8 Oeste 14 Oeste 0 -- -- 85
2019-04-09 01:00:00 2.8 11 Oeste 17 Oeste 0 -- -- 82
2019-04-09 00:00:00 2.4 15 Oeste 17 Oeste 0 -- -- 83
2019-04-08 23:00:00 2.2 9 Oeste 11 Oeste 0 -- -- 84
2019-04-08 22:00:00 3.5 8 Oeste 10 Noroeste 0 -- -- 83
2019-04-08 21:00:00 4.7 3 Sudoeste 8 Sudoeste 0 -- -- 84
2019-04-08 20:00:00 7.1 3 Sudeste 22 Oeste 0.2 -- -- 78
2019-04-08 19:00:00 7.7 13 Sudoeste 29 Oeste 0 -- -- 76
2019-04-08 18:00:00 9.6 18 Oeste 32 Oeste 0 -- -- 64
2019-04-08 17:00:00 9.4 8 Sudoeste 43 Oeste 1.2 -- -- 83
2019-04-08 16:00:00 10.9 16 Sudoeste 37 Sudoeste 0 -- -- 65
2019-04-08 15:00:00 8.5 18 Oeste 34 Oeste 0.2 -- -- 82
2019-04-08 14:00:00 9.4 19 Sudoeste 34 Sudoeste 0 -- -- 65
2019-04-08 13:00:00 7.4 17 Oeste 32 Oeste 0 -- -- 72
2019-04-08 12:00:00 6.7 23 Oeste 40 Noroeste 0 -- -- 74
2019-04-08 11:00:00 6.7 23 Noroeste 41 Noroeste 0 -- -- 74
2019-04-08 10:00:00 5.2 16 Noroeste 37 Noroeste 0 -- -- 79
2019-04-08 09:00:00 4.3 21 Noroeste 38 Oeste 0 -- -- 84
2019-04-08 08:00:00 3.8 11 Oeste 31 Oeste 0 -- -- 87
2019-04-08 07:00:00 3.7 6 Sudoeste 19 Oeste 0 -- -- 87
2019-04-08 06:00:00 3.7 9 Oeste 27 Oeste 0 -- -- 88
2019-04-08 05:00:00 3.6 13 Oeste 28 Oeste 0 -- -- 89
2019-04-08 04:00:00 3 13 Oeste 24 Oeste 0 -- -- 89
2019-04-08 03:00:00 1.4 2 Sudeste 5 Sur 0 -- -- 86
2019-04-08 02:00:00 2 3 Sur 25 Sudoeste 0 -- -- 78
2019-04-08 01:00:00 2.6 19 Sudoeste 27 Sudoeste 0 -- -- 71
2019-04-08 00:00:00 2.8 0 Calma 11 Sudoeste 0 -- -- 68
2019-04-07 23:00:00 2.8 4 Oeste 16 Sudoeste 0 -- -- 67
2019-04-07 22:00:00 3.2 3 Sudoeste 12 Sudeste 0 -- -- 64
2019-04-07 21:00:00 3.5 7 Sudeste 23 Noroeste 0 -- -- 63
2019-04-07 20:00:00 4.3 8 Noroeste 36 Oeste 0 -- -- 59
2019-04-07 19:00:00 5.6 26 Oeste 43 Oeste 0 -- -- 52
2019-04-07 18:00:00 6.3 15 Oeste 50 Oeste 0 -- -- 53
2019-04-07 17:00:00 5.1 20 Oeste 54 Oeste 0 -- -- 55
2019-04-07 16:00:00 5.1 35 Oeste 63 Oeste 0 -- -- 59
2019-04-07 15:00:00 4.3 43 Oeste 73 Oeste 0 -- -- 59
2019-04-07 14:00:00 3.7 41 Oeste 62 Noroeste 0 -- -- 63
2019-04-07 13:00:00 2.7 40 Oeste 69 Oeste 0 -- -- 65
2019-04-07 12:00:00 1.9 47 Oeste 69 Oeste 0 -- -- 74
2019-04-07 11:00:00 0.8 37 Noroeste 67 Noroeste 0 -- -- 72
2019-04-07 10:00:00 0.4 35 Oeste 71 Oeste 0 -- -- 74
2019-04-07 09:00:00 -0.3 31 Oeste 69 Oeste 0 -- -- 74
2019-04-07 08:00:00 -0.9 33 Oeste 65 Oeste 0 -- -- 77
2019-04-07 07:00:00 -1.3 30 Oeste 56 Oeste 0 -- -- 80
2019-04-07 06:00:00 -0.9 30 Oeste 55 Oeste 0 -- -- 79
2019-04-07 05:00:00 -0.5 30 Oeste 54 Oeste 0 -- -- 79
2019-04-07 04:00:00 -0.5 24 Oeste 54 Oeste 0 -- -- 81
2019-04-07 03:00:00 -0.3 19 Oeste 41 Oeste 0 -- -- 83
2019-04-07 02:00:00 -0.5 17 Oeste 34 Sudoeste 0 -- -- 86
2019-04-07 01:00:00 -0.4 22 Oeste 41 Oeste 0 -- -- 85
2019-04-07 00:00:00 -0.5 12 Sudoeste 27 Oeste 0 -- -- 84
2019-04-06 23:00:00 -0.2 17 Oeste 30 Oeste 0 -- -- 86
2019-04-06 22:00:00 0 6 Sudoeste 24 Oeste 0 -- -- 82
2019-04-06 21:00:00 0.7 12 Oeste 28 Oeste 0 -- -- 79
2019-04-06 20:00:00 1.8 10 Oeste 26 Sudoeste 0 -- -- 70
2019-04-06 19:00:00 2.6 12 Sudoeste 30 Sudoeste 0 -- -- 73
2019-04-06 18:00:00 2.2 10 Sudoeste 26 Oeste 0 -- -- 83
2019-04-06 17:00:00 2.4 7 Sudeste 39 Sur 0.2 -- -- 88
2019-04-06 16:00:00 4.7 18 Sudoeste 38 Sudoeste 0 -- -- 56
2019-04-06 15:00:00 4.6 17 Sudoeste 37 Sudoeste 0 -- -- 59
2019-04-06 14:00:00 3.1 23 Sudoeste 39 Oeste 0 -- -- 63
2019-04-06 13:00:00 3.5 23 Oeste 53 Sudoeste 0 -- -- 62
2019-04-06 12:00:00 2.7 28 Oeste 45 Sudoeste 0 -- -- 66
2019-04-06 11:00:00 1.5 30 Oeste 50 Oeste 0 -- -- 72
2019-04-06 10:00:00 0.4 21 Oeste 45 Noroeste 0 -- -- 74
2019-04-06 09:00:00 -0.4 7 Oeste 24 Sudoeste 0 -- -- 75
2019-04-06 08:00:00 -1.4 7 Norte 38 Norte 0 -- -- 80
2019-04-06 07:00:00 -1.6 17 Oeste 51 Oeste 0 -- -- 78
2019-04-06 06:00:00 -1.8 31 Oeste 46 Oeste 0 -- -- 77
2019-04-06 05:00:00 -1.9 27 Oeste 44 Oeste 0 -- -- 80
2019-04-06 04:00:00 -1.6 24 Oeste 59 Oeste 0 -- -- 82
2019-04-06 03:00:00 -1.2 21 Oeste 54 Oeste 0 -- -- 80
2019-04-06 02:00:00 -0.9 21 Noroeste 48 Oeste 0 -- -- 83
2019-04-06 01:00:00 -1.1 31 Oeste 54 Oeste 0 -- -- 84
2019-04-06 00:00:00 -0.9 32 Oeste 55 Oeste 0.2 -- -- 84
2019-04-05 23:00:00 -0.2 18 Oeste 39 Oeste 0 -- -- 81
2019-04-05 22:00:00 0.7 9 Sudoeste 25 Sudoeste 0 -- -- 87
2019-04-05 21:00:00 0.9 4 Sur 9 Sur 0 -- -- 94
2019-04-05 20:00:00 1.2 4 Este 37 Sudoeste 0 -- -- 93
2019-04-05 19:00:00 1.6 15 Sudoeste 27 Sudoeste 0.2 -- -- 88
2019-04-05 18:00:00 1 14 Sur 41 Oeste 0.2 -- -- 92
2019-04-05 17:00:00 2.6 26 Sudoeste 44 Sudoeste 0.4 -- -- 88
2019-04-05 16:00:00 2.8 10 Sur 24 Sur 0.6 -- -- 89
2019-04-05 15:00:00 4.9 14 Sur 28 Sur 0 -- -- 70
2019-04-05 14:00:00 7.2 17 Sur 29 Sudeste 0 -- -- 61
2019-04-05 13:00:00 4.9 15 Sudoeste 36 Sudoeste 0 -- -- 64
2019-04-05 12:00:00 5.4 21 Sudoeste 32 Sudoeste 0 -- -- 66
2019-04-05 11:00:00 3.2 21 Sudoeste 40 Sudoeste 0 -- -- 67
2019-04-05 10:00:00 4.1 21 Sudoeste 39 Sudoeste 0 -- -- 61
2019-04-05 09:00:00 1.9 8 Sur 25 Sudoeste 0 -- -- 75
2019-04-05 08:00:00 1.4 8 Sur 21 Sudoeste 0 -- -- 80
2019-04-05 07:00:00 0.6 6 Sur 19 Sudoeste 0 -- -- 92
2019-04-05 06:00:00 0.8 8 Sur 16 Sur 0 -- -- 93
2019-04-05 05:00:00 0.9 3 Sudeste 12 Sur 0 -- -- 86
2019-04-05 04:00:00 0.8 3 Sudeste 17 Sur 0 -- -- 79
2019-04-05 03:00:00 0.6 7 Sur 15 Sur 0 -- -- 76
2019-04-05 02:00:00 -0.2 8 Sur 19 Sur 0 -- -- 85
2019-04-05 01:00:00 -0.4 12 Sur 24 Sur 0 -- -- 93
2019-04-05 00:00:00 0.5 16 Sur 26 Sur 0 -- -- 94
2019-04-04 23:00:00 0.4 17 Sur 26 Sur 0 -- -- 94
2019-04-04 22:00:00 0.6 10 Sur 21 Sur 0 -- -- 93
2019-04-04 21:00:00 1.2 8 Sur 13 Sur 0 -- -- 81
2019-04-04 20:00:00 3.3 8 Sudeste 26 Sudeste 0 -- -- 67
2019-04-04 19:00:00 6.6 14 Sur 31 Sur 0 -- -- 45
2019-04-04 18:00:00 8 13 Sudoeste 30 Sudoeste 0 -- -- 29
2019-04-04 17:00:00 8.5 4 Noroeste 27 Sudeste 0 -- -- 34
2019-04-04 16:00:00 8.4 9 Norte 27 Sur 0 -- -- 32
2019-04-04 15:00:00 6.2 5 Sudoeste 31 Sudoeste 0 -- -- 36
2019-04-04 14:00:00 4.7 21 Noroeste 36 Noroeste 0 -- -- 35
2019-04-04 13:00:00 3.7 20 Oeste 33 Oeste 0 -- -- 40
2019-04-04 12:00:00 2.3 13 Noroeste 32 Oeste 0 -- -- 52
2019-04-04 11:00:00 0.7 19 Noroeste 40 Noroeste 0 -- -- 48
2019-04-04 10:00:00 -0.8 25 Oeste 38 Oeste 0 -- -- 53
2019-04-04 09:00:00 -2.2 25 Oeste 42 Oeste 0 -- -- 64
2019-04-04 08:00:00 -3.4 17 Oeste 35 Noroeste 0 -- -- 76
2019-04-04 07:00:00 -3.3 20 Oeste 36 Oeste 0 -- -- 75
2019-04-04 06:00:00 -3.3 8 Oeste 27 Oeste 0 -- -- 78
2019-04-04 05:00:00 -2.9 17 Noroeste 31 Noroeste 0 -- -- 77
2019-04-04 04:00:00 -2.7 14 Noroeste 38 Oeste 0 -- -- 76
2019-04-04 03:00:00 -1.9 23 Noroeste 37 Oeste 0 -- -- 72
2019-04-04 02:00:00 -1.9 21 Noroeste 45 Oeste 0 -- -- 77
2019-04-04 01:00:00 -1.6 21 Noroeste 35 Oeste 0 -- -- 83
2019-04-04 00:00:00 -2 10 Noroeste 27 Noroeste 0 -- -- 93
2019-04-03 23:00:00 -1.4 12 Noroeste 33 Norte 0 -- -- 94
2019-04-03 22:00:00 0.5 12 Noroeste 32 Oeste 0 -- -- 87
2019-04-03 21:00:00 1.7 24 Oeste 51 Oeste 0 -- -- 73
2019-04-03 20:00:00 1.7 31 Oeste 49 Oeste 0.2 -- -- 78
2019-04-03 19:00:00 4.7 21 Oeste 33 Sudoeste 0 -- -- 85
2019-04-03 18:00:00 7.3 15 Oeste 28 Sudoeste 0 -- -- 72
2019-04-03 17:00:00 7.9 15 Sudoeste 36 Sudoeste 0.2 -- -- 69
2019-04-03 16:00:00 9.5 19 Sudoeste 35 Sudoeste 0 -- -- 56
2019-04-03 15:00:00 9.7 16 Sur 40 Sur 0 -- -- 57
2019-04-03 14:00:00 8.5 25 Sudoeste 43 Sudoeste 0 -- -- 62
2019-04-03 13:00:00 8.8 19 Sudoeste 41 Sudoeste 0 -- -- 62
2019-04-03 12:00:00 8 23 Sudoeste 42 Sur 0 -- -- 64
2019-04-03 11:00:00 8.6 22 Sudoeste 39 Sur 0 -- -- 62
2019-04-03 10:00:00 8.2 13 Sudoeste 23 Sudoeste 0 -- -- 59
2019-04-03 09:00:00 5.7 4 Norte 14 Oeste 0 -- -- 69
2019-04-03 08:00:00 2.7 12 Oeste 19 Oeste 0 -- -- 86
2019-04-03 07:00:00 2.1 13 Oeste 21 Oeste 0 -- -- 88
2019-04-03 06:00:00 3 14 Oeste 22 Oeste 0 -- -- 87
2019-04-03 05:00:00 3.8 19 Oeste 34 Oeste 0 -- -- 84
2019-04-03 04:00:00 4.3 24 Oeste 36 Oeste 0 -- -- 80
2019-04-03 03:00:00 3.8 21 Oeste 26 Oeste 0 -- -- 84
2019-04-03 02:00:00 4 18 Oeste 30 Oeste 0 -- -- 84
2019-04-03 01:00:00 4.4 26 Oeste 30 Oeste 0 -- -- 85
2019-04-03 00:00:00 4.6 21 Oeste 30 Oeste 0 -- -- 84
2019-04-02 23:00:00 2.8 11 Oeste 13 Oeste 0 -- -- 91
2019-04-02 22:00:00 4 6 Sudoeste 30 Oeste 0 -- -- 92
2019-04-02 21:00:00 5.7 10 Oeste 20 Oeste 0 -- -- 89
2019-04-02 20:00:00 6.1 0 Calma 7 Este 0.6 -- -- 95
2019-04-02 19:00:00 6.6 4 Sudeste 14 Este 0 -- -- 87
2019-04-02 18:00:00 7.6 9 Sudeste 21 Sur 0 -- -- 82
2019-04-02 17:00:00 7.8 10 Sudeste 16 Sudeste 0 -- -- 81
2019-04-02 16:00:00 8.2 12 Este 19 Este 0 -- -- 80
2019-04-02 15:00:00 9.7 8 Nordeste 15 Este 0 -- -- 73
2019-04-02 14:00:00 9.1 8 Norte 19 Oeste 0 -- -- 67
2019-04-02 13:00:00 7.8 10 Noroeste 23 Noroeste 0.2 -- -- 81
2019-04-02 12:00:00 8.2 13 Noroeste 23 Norte 0 -- -- 72
2019-04-02 11:00:00 8.1 14 Noroeste 27 Oeste 0 -- -- 75
2019-04-02 10:00:00 6.2 19 Oeste 30 Oeste 0 -- -- 84
2019-04-02 09:00:00 4.8 21 Oeste 29 Oeste 0 -- -- 88
2019-04-02 08:00:00 4.5 21 Oeste 32 Oeste 0 -- -- 88
2019-04-02 07:00:00 4.4 21 Oeste 30 Oeste 0 -- -- 88
2019-04-02 06:00:00 4.1 17 Oeste 24 Oeste 0 -- -- 90
2019-04-02 05:00:00 3.7 23 Oeste 30 Oeste 0 -- -- 90
2019-04-02 04:00:00 4.5 19 Oeste 25 Oeste 0 -- -- 87
2019-04-02 03:00:00 4.4 15 Oeste 26 Oeste 0 -- -- 91
2019-04-02 02:00:00 3.9 18 Oeste 26 Oeste 0 -- -- 93
2019-04-02 01:00:00 2.6 0 Calma 14 Oeste 0 -- -- 95
2019-04-02 00:00:00 2.8 4 Oeste 19 Sudoeste 0 -- -- 96
2019-04-01 23:00:00 2.4 6 Sudoeste 10 Sudoeste 0 -- -- 96
2019-04-01 22:00:00 3.6 2 Sur 21 Sudoeste 0 -- -- 95
2019-04-01 21:00:00 4.7 6 Oeste 19 Sudoeste 0 -- -- 94
2019-04-01 20:00:00 6.1 8 Sudoeste 18 Sudoeste 0 -- -- 91
2019-04-01 19:00:00 6.3 7 Sudoeste 15 Sudeste 0 -- -- 90
2019-04-01 18:00:00 6.1 10 Sur 15 Sur 0 -- -- 92
2019-04-01 17:00:00 5.3 2 Sur 11 Este 0 -- -- 100
2019-04-01 16:00:00 4.6 9 Este 19 Este 0.2 -- -- 100
2019-04-01 15:00:00 5.4 9 Este 17 Este 0.2 -- -- 99
2019-04-01 14:00:00 5.3 6 Sudeste 11 Sudeste 0.4 -- -- 99
2019-04-01 13:00:00 5.4 8 Este 12 Este 0.2 -- -- 97
2019-04-01 12:00:00 5.2 5 Este 8 Este 0.4 -- -- 100
2019-04-01 11:00:00 4.3 2 Sudeste 5 Sudeste 0.2 -- -- 100
2019-04-01 10:00:00 3.8 0 Calma 3 Nordeste 0.2 -- -- 100
2019-04-01 09:00:00 3.4 2 Nordeste 5 Nordeste 0.8 -- -- 100
2019-04-01 08:00:00 3.3 2 Sudeste 4 Nordeste 0.2 -- -- 100
2019-04-01 07:00:00 3.3 0 Calma 5 Este 0.2 -- -- 100
2019-04-01 06:00:00 3.2 0 Calma 6 Sudeste 0.2 -- -- 100
2019-04-01 05:00:00 3.1 0 Calma 8 Este 1.2 -- -- 100
2019-04-01 04:00:00 3 2 Este 6 Este 0.2 -- -- 100
2019-04-01 03:00:00 2.9 2 Este 8 Este 1.2 -- -- 100
2019-04-01 02:00:00 2.9 0 Calma 8 Norte 1.4 -- -- 100
2019-04-01 01:00:00 2.5 2 Noroeste 6 Nordeste 0.6 -- -- 100
2019-04-01 00:00:00 2.1 0 Calma 7 Norte 0 -- -- 100
2019-03-31 23:00:00 2 8 Nordeste 18 Nordeste 0.4 -- -- 100
2019-03-31 22:00:00 2.5 8 Nordeste 19 Este 0.8 -- -- 100
2019-03-31 21:00:00 3 15 Este 22 Este 1.2 -- -- 99
2019-03-31 20:00:00 3.2 6 Nordeste 14 Nordeste 1.8 -- -- 98
2019-03-31 19:00:00 3.4 7 Nordeste 18 Nordeste 2 -- -- 98
2019-03-31 18:00:00 3.2 8 Norte 22 Nordeste 1 -- -- 98
2019-03-31 17:00:00 3.5 11 Nordeste 18 Este 1.2 -- -- 99
2019-03-31 16:00:00 3.8 6 Este 13 Este 2.2 -- -- 97
2019-03-31 15:00:00 3.3 6 Norte 11 Noroeste 1.8 -- -- 96
2019-03-31 14:00:00 2.8 4 Nordeste 14 Este 2.2 -- -- 95
2019-03-31 13:00:00 3.1 6 Nordeste 11 Este 0.8 -- -- 94
2019-03-31 12:00:00 2 3 Oeste 9 Este 0.4 -- -- 88
2019-03-31 11:00:00 3.7 3 Oeste 7 Oeste 0 -- -- 72
2019-03-31 10:00:00 2.7 3 Oeste 11 Oeste 0.2 -- -- 80
2019-03-31 09:00:00 2.9 3 Oeste 9 Oeste 0 -- -- 62
2019-03-31 08:00:00 2.7 0 Calma 9 Sudeste 0 -- -- 64
2019-03-31 07:00:00 3.4 2 Sudoeste 5 Sudeste 0 -- -- 62
2019-03-31 06:00:00 3.1 2 Este 6 Nordeste 0 -- -- 61
2019-03-31 05:00:00 2.2 2 Sudoeste 6 Sudoeste 0 -- -- 61
2019-03-31 03:00:00 3.7 4 Oeste 11 Sudoeste 0 -- -- 64
2019-03-31 01:00:00 4.3 3 Sur 15 Sudoeste 0 -- -- 60
2019-03-31 00:00:00 4.4 10 Sudoeste 14 Sudoeste 0 -- -- 50
2019-03-30 23:00:00 3.7 6 Sudoeste 18 Sudoeste 0 -- -- 63
2019-03-30 22:00:00 2.4 6 Sudoeste 12 Sudoeste 0 -- -- 82
2019-03-30 21:00:00 3.2 4 Sudeste 9 Sur 0 -- -- 94
2019-03-30 20:00:00 4 2 Sur 11 Este 0 -- -- 89
2019-03-30 19:00:00 4.6 8 Este 17 Este 0 -- -- 87
2019-03-30 18:00:00 5.8 11 Este 22 Este 0 -- -- 81
2019-03-30 17:00:00 7.3 13 Este 26 Este 0 -- -- 71
2019-03-30 16:00:00 10 14 Este 27 Este 0 -- -- 57
2019-03-30 15:00:00 10 18 Este 32 Este 0 -- -- 50
2019-03-30 14:00:00 10.3 18 Este 31 Este 0 -- -- 47
2019-03-30 13:00:00 10.1 17 Este 30 Este 0 -- -- 49
2019-03-30 12:00:00 9.6 14 Este 26 Este 0 -- -- 45
2019-03-30 11:00:00 8.4 9 Este 22 Este 0 -- -- 40
2019-03-30 10:00:00 6.9 7 Sudeste 20 Sudeste 0 -- -- 43
2019-03-30 09:00:00 4.7 9 Sudeste 14 Sudeste 0 -- -- 48
2019-03-30 08:00:00 3.2 3 Sur 13 Sudoeste 0 -- -- 54
2019-03-30 07:00:00 -1.1 9 Sudoeste 12 Sudoeste 0 -- -- 68
2019-03-30 06:00:00 -1.3 10 Sudoeste 13 Sudoeste 0 -- -- 70
2019-03-30 05:00:00 -1.2 8 Sudoeste 12 Sudoeste 0 -- -- 71
2019-03-30 04:00:00 -0.6 11 Sudoeste 17 Sudoeste 0 -- -- 68
2019-03-30 03:00:00 -0.8 11 Sudoeste 14 Sudoeste 0 -- -- 70
2019-03-30 02:00:00 -0.4 11 Sudoeste 15 Sudoeste 0 -- -- 68
2019-03-30 01:00:00 0.1 9 Sudoeste 13 Sur 0 -- -- 65
2019-03-30 00:00:00 -0.8 4 Sur 7 Sudoeste 0 -- -- 75
2019-03-29 23:00:00 1.1 4 Sudeste 8 Sur 0 -- -- 69
2019-03-29 22:00:00 0.7 4 Sur 7 Sur 0 -- -- 80
2019-03-29 21:00:00 -0.5 5 Sudoeste 8 Sudoeste 0 -- -- 84
2019-03-29 20:00:00 1.6 2 Sudeste 13 Este 0 -- -- 79
2019-03-29 19:00:00 3.7 9 Este 22 Sudeste 0 -- -- 71
2019-03-29 18:00:00 5.7 14 Este 27 Este 0 -- -- 62
2019-03-29 17:00:00 7.8 15 Este 27 Sudeste 0 -- -- 56
2019-03-29 16:00:00 7.6 17 Este 32 Este 0 -- -- 56
2019-03-29 15:00:00 8.8 20 Este 33 Este 0 -- -- 55
2019-03-29 14:00:00 9.6 20 Este 32 Este 0 -- -- 52
2019-03-29 13:00:00 9.3 18 Este 32 Este 0 -- -- 45
2019-03-29 12:00:00 8.9 19 Este 30 Este 0 -- -- 46
2019-03-29 11:00:00 7.7 14 Este 28 Este 0 -- -- 47
2019-03-29 10:00:00 6.7 15 Sudeste 26 Este 0 -- -- 50
2019-03-29 09:00:00 5.2 14 Sudeste 22 Este 0 -- -- 55
2019-03-29 08:00:00 3.6 9 Sur 17 Sur 0 -- -- 57
2019-03-29 07:00:00 -0.1 7 Sur 12 Sur 0 -- -- 64
2019-03-29 06:00:00 0.4 7 Sur 12 Sur 0 -- -- 61
2019-03-29 05:00:00 0.2 7 Sudoeste 13 Sur 0 -- -- 63
2019-03-29 04:00:00 0.5 8 Sudoeste 14 Sur 0 -- -- 63
2019-03-29 03:00:00 0.5 8 Sudoeste 11 Sudoeste 0 -- -- 63
2019-03-29 02:00:00 0.6 6 Sudoeste 16 Sudoeste 0 -- -- 63
2019-03-29 01:00:00 0.8 13 Sudoeste 17 Sudoeste 0 -- -- 60
2019-03-29 00:00:00 1 10 Sudoeste 16 Sur 0 -- -- 55
2019-03-28 23:00:00 0.5 6 Sudoeste 12 Sudoeste 0 -- -- 64
2019-03-28 22:00:00 1.5 3 Sudoeste 9 Sur 0 -- -- 66
2019-03-28 21:00:00 1.9 5 Sudoeste 14 Sudoeste 0 -- -- 69
2019-03-28 20:00:00 2.6 11 Sudoeste 15 Sudoeste 0 -- -- 67
2019-03-28 19:00:00 5.4 7 Sudeste 19 Este 0 -- -- 58
2019-03-28 18:00:00 8.1 13 Este 26 Este 0 -- -- 50
2019-03-28 17:00:00 10.4 15 Este 24 Este 0 -- -- 43
2019-03-28 16:00:00 11.2 12 Este 29 Este 0 -- -- 39
2019-03-28 15:00:00 12.1 12 Nordeste 26 Este 0 -- -- 33
2019-03-28 14:00:00 11.8 13 Este 27 Este 0 -- -- 33
2019-03-28 13:00:00 10.8 12 Este 22 Este 0 -- -- 35
2019-03-28 12:00:00 10.5 12 Nordeste 26 Este 0 -- -- 36
2019-03-28 11:00:00 9.9 8 Nordeste 20 Este 0 -- -- 31
2019-03-28 10:00:00 7.4 12 Sudeste 21 Sudeste 0 -- -- 32
2019-03-28 09:00:00 5.7 12 Sudeste 19 Sudeste 0 -- -- 31
2019-03-28 08:00:00 3.7 0 Calma 11 Sudoeste 0 -- -- 53
2019-03-28 07:00:00 -0.3 11 Sudoeste 13 Sudoeste 0 -- -- 65
2019-03-28 06:00:00 -1.1 5 Sudoeste 9 Sudoeste 0 -- -- 64
2019-03-28 05:00:00 -0.5 8 Sudoeste 10 Sudoeste 0 -- -- 63
2019-03-28 04:00:00 -0.3 5 Sudoeste 11 Sudoeste 0 -- -- 59
2019-03-28 03:00:00 0.7 6 Sudoeste 10 Sudoeste 0 -- -- 54
2019-03-28 02:00:00 0.6 7 Oeste 11 Noroeste 0 -- -- 51
2019-03-28 01:00:00 2 11 Noroeste 16 Noroeste 0 -- -- 47
2019-03-28 00:00:00 2.3 6 Oeste 10 Oeste 0 -- -- 44
2019-03-27 23:00:00 3.5 6 Sur 24 Oeste 0 -- -- 43
2019-03-27 22:00:00 5.2 20 Oeste 24 Oeste 0 -- -- 39
2019-03-27 21:00:00 3.7 12 Noroeste 15 Noroeste 0 -- -- 44
2019-03-27 20:00:00 3.3 7 Oeste 13 Oeste 0 -- -- 59
2019-03-27 19:00:00 6.6 3 Sudeste 12 Nordeste 0 -- -- 49
2019-03-27 18:00:00 9.2 9 Este 18 Nordeste 0 -- -- 43
2019-03-27 17:00:00 10.5 11 Este 27 Nordeste 0 -- -- 37
2019-03-27 16:00:00 12.2 13 Norte 28 Norte 0 -- -- 23
2019-03-27 15:00:00 12.5 10 Norte 26 Nordeste 0 -- -- 23
2019-03-27 14:00:00 11.8 13 Nordeste 26 Este 0 -- -- 24
2019-03-27 13:00:00 10.5 10 Este 22 Nordeste 0 -- -- 24
2019-03-27 12:00:00 9.6 5 Este 19 Este 0 -- -- 26
2019-03-27 11:00:00 8.3 8 Nordeste 20 Nordeste 0 -- -- 26
2019-03-27 10:00:00 6.5 6 Sudeste 12 Este 0 -- -- 32
2019-03-27 09:00:00 5.4 3 Este 8 Nordeste 0 -- -- 36
2019-03-27 08:00:00 2 3 Sudoeste 7 Sudoeste 0 -- -- 53
2019-03-27 07:00:00 -2.9 5 Sudoeste 8 Sudoeste 0 -- -- 72
2019-03-27 06:00:00 -1.4 4 Oeste 9 Oeste 0 -- -- 67
2019-03-27 05:00:00 -1 4 Noroeste 10 Oeste 0 -- -- 62
2019-03-27 04:00:00 -1.2 2 Nordeste 14 Oeste 0 -- -- 63
2019-03-27 03:00:00 -1.1 5 Oeste 9 Oeste 0 -- -- 61
2019-03-27 02:00:00 -0.3 0 Calma 8 Noroeste 0 -- -- 62
2019-03-27 01:00:00 1.9 4 Norte 27 Oeste 0 -- -- 59
2019-03-27 00:00:00 0.9 14 Oeste 21 Oeste 0 -- -- 68
2019-03-26 23:00:00 0.5 11 Sudoeste 17 Sudoeste 0 -- -- 90
2019-03-26 22:00:00 2.6 0 Calma 6 Sudeste 0 -- -- 89
2019-03-26 21:00:00 1.9 2 Sudeste 6 Oeste 0 -- -- 91
2019-03-26 20:00:00 3.6 4 Sur 14 Este 0 -- -- 81
2019-03-26 19:00:00 7.3 12 Noroeste 24 Noroeste 0 -- -- 24
2019-03-26 18:00:00 10.5 14 Norte 26 Norte 0 -- -- 22
2019-03-26 17:00:00 12.1 15 Norte 30 Norte 0 -- -- 25
2019-03-26 16:00:00 12.6 17 Norte 32 Nordeste 0 -- -- 16
2019-03-26 15:00:00 12.4 13 Nordeste 26 Nordeste 0 -- -- 24
2019-03-26 14:00:00 12.3 15 Norte 27 Nordeste 0 -- -- 19
2019-03-26 13:00:00 11.9 15 Nordeste 27 Norte 0 -- -- 23
2019-03-26 12:00:00 11.1 10 Este 24 Este 0 -- -- 37
2019-03-26 11:00:00 10.2 8 Norte 17 Norte 0 -- -- 38
2019-03-26 10:00:00 8.1 8 Nordeste 17 Norte 0 -- -- 45
2019-03-26 09:00:00 5.8 12 Norte 23 Noroeste 0 -- -- 51
2019-03-26 08:00:00 3.5 12 Norte 21 Norte 0 -- -- 55
2019-03-26 07:00:00 2.7 14 Noroeste 24 Noroeste 0 -- -- 47
2019-03-26 06:00:00 2.7 19 Noroeste 25 Noroeste 0 -- -- 44
2019-03-26 05:00:00 0.7 0 Calma 13 Oeste 0 -- -- 52
2019-03-26 04:00:00 0.7 4 Noroeste 19 Oeste 0 -- -- 59
2019-03-26 03:00:00 1.2 3 Sudoeste 16 Norte 0 -- -- 62
2019-03-26 02:00:00 1.8 5 Este 18 Oeste 0 -- -- 63
2019-03-26 01:00:00 2 3 Oeste 14 Oeste 0 -- -- 64
2019-03-26 00:00:00 2.7 7 Sudoeste 17 Oeste 0 -- -- 63
2019-03-25 23:00:00 2.1 2 Sudoeste 20 Oeste 0 -- -- 66
2019-03-25 22:00:00 3.5 5 Sudoeste 24 Oeste 0 -- -- 63
2019-03-25 21:00:00 4.4 17 Oeste 21 Oeste 0 -- -- 63
2019-03-25 20:00:00 4.3 4 Sudoeste 13 Noroeste 0 -- -- 61
2019-03-25 19:00:00 8.4 6 Norte 15 Nordeste 0 -- -- 50
2019-03-25 18:00:00 11.2 9 Norte 20 Nordeste 0 -- -- 45
2019-03-25 17:00:00 12.4 14 Norte 24 Nordeste 0 -- -- 46
2019-03-25 16:00:00 12.1 13 Este 24 Norte 0 -- -- 47
2019-03-25 15:00:00 14.5 10 Este 24 Nordeste 0 -- -- 40
2019-03-25 14:00:00 13.1 12 Nordeste 23 Este 0 -- -- 42
2019-03-25 13:00:00 14 11 Este 35 Este 0 -- -- 38
2019-03-25 12:00:00 13.8 9 Sudeste 23 Este 0 -- -- 35
2019-03-25 11:00:00 13.3 10 Este 22 Sudeste 0 -- -- 34
2019-03-25 10:00:00 12 5 Este 16 Norte 0 -- -- 36
2019-03-25 09:00:00 10.3 11 Nordeste 15 Norte 0 -- -- 39
2019-03-25 08:00:00 7.5 0 Calma 13 Oeste 0 -- -- 47
2019-03-25 07:00:00 4 12 Oeste 18 Oeste 0 -- -- 55
2019-03-25 06:00:00 4 17 Oeste 20 Oeste 0 -- -- 55
2019-03-25 05:00:00 3.9 17 Oeste 19 Oeste 0 -- -- 56
2019-03-25 04:00:00 4.1 16 Oeste 18 Oeste 0 -- -- 55
2019-03-25 03:00:00 4.1 13 Oeste 18 Noroeste 0 -- -- 55
2019-03-25 02:00:00 3.9 5 Oeste 11 Sudoeste 0 -- -- 57
2019-03-25 01:00:00 3.5 8 Sudoeste 10 Sudoeste 0 -- -- 57
2019-03-25 00:00:00 3.1 7 Sudoeste 12 Sudoeste 0 -- -- 57
2019-03-24 23:00:00 4.1 9 Sudoeste 12 Sudoeste 0 -- -- 55
2019-03-24 22:00:00 4.4 7 Sudoeste 9 Sudoeste 0 -- -- 55
2019-03-24 21:00:00 4.5 8 Sudoeste 10 Sudoeste 0 -- -- 54
2019-03-24 20:00:00 4.9 6 Sudoeste 10 Este 0 -- -- 54
2019-03-24 19:00:00 9.1 7 Este 20 Sudeste 0 -- -- 43
2019-03-24 18:00:00 11.8 12 Este 28 Este 0 -- -- 37
2019-03-24 17:00:00 13.6 15 Este 26 Este 0 -- -- 33
2019-03-24 16:00:00 14.2 14 Este 27 Este 0 -- -- 30
2019-03-24 15:00:00 14.6 13 Nordeste 32 Norte 0 -- -- 28
2019-03-24 14:00:00 14.7 8 Norte 25 Este 0 -- -- 27
2019-03-24 13:00:00 13.8 10 Nordeste 30 Este 0 -- -- 30
2019-03-24 12:00:00 12.8 15 Este 34 Este 0 -- -- 32
2019-03-24 11:00:00 12.1 16 Este 31 Nordeste 0 -- -- 36
2019-03-24 10:00:00 11.2 17 Este 28 Este 0 -- -- 37
2019-03-24 09:00:00 10.5 7 Este 12 Nordeste 0 -- -- 33
2019-03-24 08:00:00 7.7 4 Norte 5 Nordeste 0 -- -- 36
2019-03-24 07:00:00 3.6 4 Oeste 8 Oeste 0 -- -- 42
2019-03-24 06:00:00 2.2 5 Oeste 11 Sudoeste 0 -- -- 44
2019-03-24 05:00:00 2.6 7 Sudoeste 10 Sudoeste 0 -- -- 42
2019-03-24 04:00:00 2.6 3 Sudoeste 9 Sur 0 -- -- 43
2019-03-24 03:00:00 3.9 5 Sur 10 Sur 0 -- -- 41
2019-03-24 02:00:00 4.2 5 Sur 9 Sudoeste 0 -- -- 43
2019-03-24 01:00:00 2.4 5 Sudoeste 9 Sudoeste 0 -- -- 59
2019-03-24 00:00:00 2.4 5 Oeste 9 Sudoeste 0 -- -- 59
2019-03-23 23:00:00 3.2 6 Sudoeste 9 Sudoeste 0 -- -- 56
2019-03-23 22:00:00 3 5 Sudoeste 8 Sudoeste 0 -- -- 59
2019-03-23 21:00:00 3.2 5 Sudoeste 8 Sudoeste 0 -- -- 62
2019-03-23 20:00:00 4.1 4 Oeste 8 Sudoeste 0 -- -- 62
2019-03-23 19:00:00 7.8 5 Este 20 Este 0 -- -- 53
2019-03-23 18:00:00 10.1 12 Este 25 Este 0 -- -- 47
2019-03-23 17:00:00 11.1 15 Este 30 Nordeste 0 -- -- 47
2019-03-23 16:00:00 11.6 18 Este 35 Este 0 -- -- 47
2019-03-23 15:00:00 11.7 15 Nordeste 33 Nordeste 0 -- -- 43
2019-03-23 14:00:00 12.4 16 Nordeste 36 Nordeste 0 -- -- 43
2019-03-23 13:00:00 12 19 Nordeste 34 Nordeste 0 -- -- 42
2019-03-23 12:00:00 11.7 16 Este 29 Este 0 -- -- 43
2019-03-23 11:00:00 10.5 15 Este 33 Nordeste 0 -- -- 47
2019-03-23 10:00:00 9 15 Norte 25 Norte 0 -- -- 47
2019-03-23 09:00:00 7.6 13 Norte 19 Norte 0 -- -- 55
2019-03-23 08:00:00 5.4 11 Norte 21 Noroeste 0 -- -- 66
2019-03-23 07:00:00 3.7 13 Noroeste 24 Noroeste 0 -- -- 73
2019-03-23 06:00:00 3.7 13 Noroeste 22 Noroeste 0 -- -- 72
2019-03-23 05:00:00 3.7 13 Noroeste 22 Noroeste 0 -- -- 72
2019-03-23 04:00:00 3.8 14 Noroeste 26 Noroeste 0 -- -- 72
2019-03-23 03:00:00 3.8 13 Noroeste 25 Noroeste 0 -- -- 72
2019-03-23 02:00:00 3.2 12 Noroeste 22 Noroeste 0 -- -- 75
2019-03-23 01:00:00 3.1 9 Noroeste 13 Noroeste 0 -- -- 76
2019-03-23 00:00:00 2.5 6 Oeste 11 Oeste 0 -- -- 77
2019-03-22 23:00:00 2.6 5 Oeste 10 Oeste 0 -- -- 76
2019-03-22 22:00:00 2.9 3 Oeste 9 Oeste 0 -- -- 74
2019-03-22 21:00:00 2.9 5 Oeste 8 Sudoeste 0 -- -- 71
2019-03-22 20:00:00 3.9 3 Oeste 15 Nordeste 0 -- -- 69
2019-03-22 19:00:00 6.4 9 Nordeste 20 Nordeste 0 -- -- 61
2019-03-22 18:00:00 8.6 14 Nordeste 24 Este 0 -- -- 55
2019-03-22 17:00:00 9.6 14 Nordeste 24 Este 0 -- -- 54
2019-03-22 16:00:00 9.6 14 Nordeste 30 Nordeste 0 -- -- 54
2019-03-22 15:00:00 9.2 13 Nordeste 27 Este 0 -- -- 58
2019-03-22 14:00:00 9.1 18 Este 27 Este 0 -- -- 56
2019-03-22 13:00:00 7.5 16 Este 26 Este 0 -- -- 54
2019-03-22 12:00:00 7.7 14 Nordeste 27 Nordeste 0 -- -- 55
2019-03-22 11:00:00 6.6 14 Norte 23 Norte 0 -- -- 52
2019-03-22 10:00:00 4.7 17 Norte 30 Norte 0 -- -- 52
2019-03-22 09:00:00 3.3 14 Norte 24 Norte 0 -- -- 52
2019-03-22 08:00:00 1.7 12 Noroeste 20 Norte 0 -- -- 58
2019-03-22 07:00:00 1 13 Noroeste 21 Noroeste 0 -- -- 63
2019-03-22 06:00:00 1.6 10 Noroeste 20 Noroeste 0 -- -- 58
2019-03-22 05:00:00 1.4 10 Noroeste 19 Norte 0 -- -- 53
2019-03-22 04:00:00 1.2 12 Noroeste 19 Norte 0 -- -- 56
2019-03-22 03:00:00 0.4 9 Noroeste 17 Noroeste 0 -- -- 66
2019-03-22 02:00:00 -0.8 5 Noroeste 12 Norte 0 -- -- 71
2019-03-22 01:00:00 0.8 8 Noroeste 14 Noroeste 0 -- -- 63
2019-03-22 00:00:00 1.1 9 Noroeste 17 Noroeste 0 -- -- 61
2019-03-21 23:00:00 0.9 10 Noroeste 18 Noroeste 0 -- -- 66
2019-03-21 22:00:00 1.5 12 Noroeste 18 Noroeste 0 -- -- 68
2019-03-21 21:00:00 -0.2 3 Oeste 9 Oeste 0 -- -- 77
2019-03-21 20:00:00 -0.2 3 Oeste 10 Este 0 -- -- 74
2019-03-21 19:00:00 2.7 8 Este 18 Este 0 -- -- 65
2019-03-21 18:00:00 5.4 13 Este 27 Este 0 -- -- 54
2019-03-21 17:00:00 6.9 14 Este 27 Nordeste 0 -- -- 50
2019-03-21 16:00:00 8.1 12 Nordeste 28 Nordeste 0 -- -- 41
2019-03-21 15:00:00 7 11 Este 31 Este 0 -- -- 42
2019-03-21 14:00:00 7.8 13 Este 28 Este 0 -- -- 41
2019-03-21 13:00:00 7.1 15 Nordeste 25 Nordeste 0 -- -- 44
2019-03-21 12:00:00 6.7 12 Norte 26 Nordeste 0 -- -- 42
2019-03-21 11:00:00 5.9 15 Norte 26 Norte 0 -- -- 46
2019-03-21 10:00:00 4.5 11 Norte 24 Nordeste 0 -- -- 55
2019-03-21 09:00:00 2.7 15 Norte 21 Norte 0 -- -- 57
2019-03-21 08:00:00 1.1 11 Norte 20 Noroeste 0 -- -- 61
2019-03-21 07:00:00 -0.7 10 Noroeste 19 Noroeste 0 -- -- 65
2019-03-21 06:00:00 -0.3 12 Noroeste 23 Noroeste 0 -- -- 63
2019-03-21 05:00:00 -0.9 9 Noroeste 19 Noroeste 0 -- -- 68
2019-03-21 04:00:00 -0.2 12 Noroeste 21 Oeste 0 -- -- 61
2019-03-21 03:00:00 -0.4 15 Oeste 29 Oeste 0 -- -- 64
2019-03-21 02:00:00 -0.7 22 Oeste 30 Oeste 0 -- -- 69
2019-03-21 01:00:00 -0.9 17 Oeste 24 Oeste 0 -- -- 70
2019-03-21 00:00:00 -2.5 3 Sudoeste 6 Sudoeste 0 -- -- 91
2019-03-20 23:00:00 -2.2 2 Noroeste 9 Noroeste 0 -- -- 78
2019-03-20 22:00:00 -0.5 5 Norte 11 Norte 0 -- -- 73
2019-03-20 21:00:00 -0.6 8 Oeste 12 Noroeste 0 -- -- 84
2019-03-20 20:00:00 0.3 2 Oeste 12 Sudeste 0 -- -- 82
2019-03-20 19:00:00 2 6 Sudeste 25 Nordeste 0 -- -- 82
2019-03-20 18:00:00 5.3 12 Nordeste 24 Norte 0 -- -- 60
2019-03-20 17:00:00 7.1 16 Norte 29 Norte 0 -- -- 39
2019-03-20 16:00:00 7.7 17 Norte 31 Nordeste 0 -- -- 40
2019-03-20 15:00:00 7.3 16 Nordeste 30 Nordeste 0 -- -- 43
2019-03-20 14:00:00 6.9 15 Nordeste 29 Norte 0 -- -- 43
2019-03-20 13:00:00 7.2 14 Norte 31 Norte 0 -- -- 43
2019-03-20 12:00:00 6.3 15 Norte 28 Norte 0 -- -- 45
2019-03-20 11:00:00 5.4 15 Norte 27 Norte 0 -- -- 48
2019-03-20 10:00:00 1.9 13 Oeste 29 Noroeste 0 -- -- 72
2019-03-20 09:00:00 -0.2 16 Noroeste 39 Oeste 0 -- -- 84
2019-03-20 08:00:00 -2 20 Oeste 28 Oeste 0 -- -- 92
2019-03-20 07:00:00 -3.8 16 Oeste 26 Oeste 0 -- -- 91
2019-03-20 06:00:00 -3.4 13 Oeste 19 Oeste 0 -- -- 87
2019-03-20 05:00:00 -3.6 0 Calma 17 Oeste 0 -- -- 87
2019-03-20 04:00:00 -3.3 4 Oeste 21 Oeste 0 -- -- 87
2019-03-20 03:00:00 -2.9 3 Oeste 11 Noroeste 0 -- -- 85
2019-03-20 02:00:00 -2.5 2 Sur 14 Oeste 0 -- -- 85
2019-03-20 01:00:00 -2.9 3 Sur 17 Oeste 0 -- -- 86
2019-03-20 00:00:00 -2 3 Sur 29 Oeste 0 -- -- 82
2019-03-19 23:00:00 -1.5 13 Oeste 33 Oeste 0 -- -- 82
2019-03-19 22:00:00 -0.8 26 Oeste 40 Oeste 0 -- -- 81
2019-03-19 21:00:00 -0.2 27 Oeste 40 Oeste 0 -- -- 78
2019-03-19 20:00:00 1.2 27 Noroeste 42 Noroeste 0 -- -- 74
2019-03-19 19:00:00 2 18 Oeste 32 Oeste 0 -- -- 71
2019-03-19 18:00:00 2.7 18 Oeste 30 Oeste 0 -- -- 69
2019-03-19 17:00:00 2.9 15 Noroeste 33 Noroeste 0 -- -- 68
2019-03-19 16:00:00 4.1 18 Noroeste 32 Oeste 0 -- -- 66
2019-03-19 15:00:00 3.7 20 Oeste 37 Noroeste 0 -- -- 67
2019-03-19 14:00:00 4.6 23 Oeste 38 Norte 0 -- -- 61
2019-03-19 13:00:00 3.9 26 Oeste 48 Oeste 0 -- -- 71
2019-03-19 12:00:00 2.5 23 Noroeste 47 Oeste 0 -- -- 79
2019-03-19 11:00:00 0.2 22 Noroeste 52 Oeste 0 -- -- 87
2019-03-19 10:00:00 -0.4 27 Noroeste 52 Oeste 0 -- -- 90
2019-03-19 09:00:00 -1 26 Noroeste 51 Noroeste 0 -- -- 91
2019-03-19 08:00:00 -1.4 21 Noroeste 41 Noroeste 0.2 -- -- 92
2019-03-19 07:00:00 -1.5 15 Noroeste 38 Noroeste 0 -- -- 91
2019-03-19 06:00:00 -1.4 12 Noroeste 32 Noroeste 0 -- -- 90
2019-03-19 05:00:00 -1.5 12 Noroeste 42 Oeste 0 -- -- 89
2019-03-19 04:00:00 -1.3 21 Noroeste 66 Noroeste 0 -- -- 85
2019-03-19 03:00:00 -0.7 48 Oeste 65 Oeste 0 -- -- 74
2019-03-19 02:00:00 -0.5 46 Oeste 66 Oeste 0 -- -- 61
2019-03-19 01:00:00 -0.2 59 Oeste 74 Oeste 0 -- -- 61
2019-03-19 00:00:00 0 45 Oeste 68 Oeste 0 -- -- 64